sensor_id;sensor_type;location;lat;lon;timestamp;P1;durP1;ratioP1;P2;durP2;ratioP2
55314;SDS011;41619;42.816;23.226;2023-07-16T00:00:42;20.70;;;11.48;;
55314;SDS011;41619;42.816;23.226;2023-07-16T00:03:08;19.63;;;12.15;;
55314;SDS011;41619;42.816;23.226;2023-07-16T00:05:34;15.43;;;11.77;;
55314;SDS011;41619;42.816;23.226;2023-07-16T00:08:02;19.83;;;11.32;;
55314;SDS011;41619;42.816;23.226;2023-07-16T00:10:27;16.05;;;11.02;;
55314;SDS011;41619;42.816;23.226;2023-07-16T00:12:53;17.90;;;11.07;;
55314;SDS011;41619;42.816;23.226;2023-07-16T00:15:18;20.52;;;11.15;;
55314;SDS011;41619;42.816;23.226;2023-07-16T00:17:43;14.68;;;11.35;;
55314;SDS011;41619;42.816;23.226;2023-07-16T00:20:09;13.52;;;10.50;;
55314;SDS011;41619;42.816;23.226;2023-07-16T00:22:35;15.70;;;10.77;;
55314;SDS011;41619;42.816;23.226;2023-07-16T00:25:04;15.25;;;11.23;;
55314;SDS011;41619;42.816;23.226;2023-07-16T00:27:30;21.80;;;11.30;;
55314;SDS011;41619;42.816;23.226;2023-07-16T00:29:55;15.95;;;9.93;;
55314;SDS011;41619;42.816;23.226;2023-07-16T00:32:21;18.58;;;9.50;;
55314;SDS011;41619;42.816;23.226;2023-07-16T00:34:46;15.32;;;10.10;;
55314;SDS011;41619;42.816;23.226;2023-07-16T00:37:12;17.20;;;9.07;;
55314;SDS011;41619;42.816;23.226;2023-07-16T00:39:37;13.75;;;9.15;;
55314;SDS011;41619;42.816;23.226;2023-07-16T00:42:03;21.05;;;10.10;;
55314;SDS011;41619;42.816;23.226;2023-07-16T00:44:28;16.20;;;9.23;;
55314;SDS011;41619;42.816;23.226;2023-07-16T00:46:54;14.80;;;9.13;;
55314;SDS011;41619;42.816;23.226;2023-07-16T00:49:19;17.92;;;9.13;;
55314;SDS011;41619;42.816;23.226;2023-07-16T00:51:45;12.50;;;8.50;;
55314;SDS011;41619;42.816;23.226;2023-07-16T00:54:11;15.38;;;8.82;;
55314;SDS011;41619;42.816;23.226;2023-07-16T00:56:37;19.08;;;9.32;;
55314;SDS011;41619;42.816;23.226;2023-07-16T00:59:02;16.90;;;8.98;;
55314;SDS011;41619;42.816;23.226;2023-07-16T01:01:28;15.18;;;9.00;;
55314;SDS011;41619;42.816;23.226;2023-07-16T01:03:53;11.32;;;8.27;;
55314;SDS011;41619;42.816;23.226;2023-07-16T01:09:03;13.77;;;9.30;;
55314;SDS011;41619;42.816;23.226;2023-07-16T01:11:35;14.85;;;8.95;;
55314;SDS011;41619;42.816;23.226;2023-07-16T01:14:02;19.17;;;9.25;;
55314;SDS011;41619;42.816;23.226;2023-07-16T01:16:28;14.15;;;8.63;;
55314;SDS011;41619;42.816;23.226;2023-07-16T01:18:54;15.30;;;8.30;;
55314;SDS011;41619;42.816;23.226;2023-07-16T01:21:20;17.58;;;8.98;;
55314;SDS011;41619;42.816;23.226;2023-07-16T01:24:05;16.67;;;8.82;;
55314;SDS011;41619;42.816;23.226;2023-07-16T01:29:32;16.83;;;8.27;;
55314;SDS011;41619;42.816;23.226;2023-07-16T01:32:02;14.65;;;8.40;;
55314;SDS011;41619;42.816;23.226;2023-07-16T01:34:30;10.73;;;8.27;;
55314;SDS011;41619;42.816;23.226;2023-07-16T01:37:03;17.23;;;8.25;;
55314;SDS011;41619;42.816;23.226;2023-07-16T01:39:29;13.55;;;9.02;;
55314;SDS011;41619;42.816;23.226;2023-07-16T01:41:56;12.57;;;7.97;;
55314;SDS011;41619;42.816;23.226;2023-07-16T01:44:21;15.48;;;7.95;;
55314;SDS011;41619;42.816;23.226;2023-07-16T01:49:24;12.90;;;8.40;;
55314;SDS011;41619;42.816;23.226;2023-07-16T01:51:50;16.70;;;8.10;;
55314;SDS011;41619;42.816;23.226;2023-07-16T01:54:15;13.88;;;7.95;;
55314;SDS011;41619;42.816;23.226;2023-07-16T01:56:40;16.63;;;8.25;;
55314;SDS011;41619;42.816;23.226;2023-07-16T01:59:06;11.35;;;8.05;;
55314;SDS011;41619;42.816;23.226;2023-07-16T02:01:31;10.85;;;7.03;;
55314;SDS011;41619;42.816;23.226;2023-07-16T02:03:56;13.02;;;7.20;;
55314;SDS011;41619;42.816;23.226;2023-07-16T02:06:22;14.05;;;7.75;;
55314;SDS011;41619;42.816;23.226;2023-07-16T02:08:47;13.25;;;7.18;;
55314;SDS011;41619;42.816;23.226;2023-07-16T02:11:13;14.45;;;8.27;;
55314;SDS011;41619;42.816;23.226;2023-07-16T02:13:38;11.82;;;7.80;;
55314;SDS011;41619;42.816;23.226;2023-07-16T02:16:04;15.63;;;8.43;;
55314;SDS011;41619;42.816;23.226;2023-07-16T02:18:29;9.57;;;7.57;;
55314;SDS011;41619;42.816;23.226;2023-07-16T02:20:55;13.48;;;7.90;;
55314;SDS011;41619;42.816;23.226;2023-07-16T02:23:20;10.73;;;7.63;;
55314;SDS011;41619;42.816;23.226;2023-07-16T02:25:45;12.98;;;7.57;;
55314;SDS011;41619;42.816;23.226;2023-07-16T02:28:11;15.57;;;8.27;;
55314;SDS011;41619;42.816;23.226;2023-07-16T02:30:37;14.25;;;7.88;;
55314;SDS011;41619;42.816;23.226;2023-07-16T02:33:02;11.77;;;8.02;;
55314;SDS011;41619;42.816;23.226;2023-07-16T02:35:28;12.73;;;8.10;;
55314;SDS011;41619;42.816;23.226;2023-07-16T02:37:54;19.35;;;7.88;;
55314;SDS011;41619;42.816;23.226;2023-07-16T02:40:20;18.15;;;8.15;;
55314;SDS011;41619;42.816;23.226;2023-07-16T02:42:45;14.57;;;8.05;;
55314;SDS011;41619;42.816;23.226;2023-07-16T02:45:10;15.98;;;8.02;;
55314;SDS011;41619;42.816;23.226;2023-07-16T02:47:36;12.77;;;8.15;;
55314;SDS011;41619;42.816;23.226;2023-07-16T02:50:01;10.00;;;7.80;;
55314;SDS011;41619;42.816;23.226;2023-07-16T02:52:27;13.40;;;8.10;;
55314;SDS011;41619;42.816;23.226;2023-07-16T02:54:52;19.83;;;8.07;;
55314;SDS011;41619;42.816;23.226;2023-07-16T02:57:18;15.60;;;8.15;;
55314;SDS011;41619;42.816;23.226;2023-07-16T02:59:43;19.90;;;8.75;;
55314;SDS011;41619;42.816;23.226;2023-07-16T03:02:08;13.80;;;8.15;;
55314;SDS011;41619;42.816;23.226;2023-07-16T03:04:34;19.38;;;8.35;;
55314;SDS011;41619;42.816;23.226;2023-07-16T03:06:59;15.88;;;8.00;;
55314;SDS011;41619;42.816;23.226;2023-07-16T03:09:25;11.07;;;8.50;;
55314;SDS011;41619;42.816;23.226;2023-07-16T03:11:50;14.55;;;8.80;;
55314;SDS011;41619;42.816;23.226;2023-07-16T03:14:15;16.42;;;9.27;;
55314;SDS011;41619;42.816;23.226;2023-07-16T03:16:41;15.25;;;8.80;;
55314;SDS011;41619;42.816;23.226;2023-07-16T03:19:06;12.60;;;8.57;;
55314;SDS011;41619;42.816;23.226;2023-07-16T03:21:32;19.13;;;8.60;;
55314;SDS011;41619;42.816;23.226;2023-07-16T03:23:57;21.52;;;8.32;;
55314;SDS011;41619;42.816;23.226;2023-07-16T03:26:22;19.38;;;8.23;;
55314;SDS011;41619;42.816;23.226;2023-07-16T03:28:48;17.35;;;9.15;;
55314;SDS011;41619;42.816;23.226;2023-07-16T03:31:13;13.43;;;8.82;;
55314;SDS011;41619;42.816;23.226;2023-07-16T03:33:38;19.42;;;8.20;;
55314;SDS011;41619;42.816;23.226;2023-07-16T03:36:04;20.75;;;8.93;;
55314;SDS011;41619;42.816;23.226;2023-07-16T03:38:30;13.05;;;8.68;;
55314;SDS011;41619;42.816;23.226;2023-07-16T03:40:55;12.07;;;8.50;;
55314;SDS011;41619;42.816;23.226;2023-07-16T03:43:20;14.82;;;8.45;;
55314;SDS011;41619;42.816;23.226;2023-07-16T03:45:46;12.38;;;8.07;;
55314;SDS011;41619;42.816;23.226;2023-07-16T03:48:11;13.40;;;8.57;;
55314;SDS011;41619;42.816;23.226;2023-07-16T03:50:36;17.90;;;8.93;;
55314;SDS011;41619;42.816;23.226;2023-07-16T03:53:02;15.80;;;8.48;;
55314;SDS011;41619;42.816;23.226;2023-07-16T03:55:28;16.35;;;8.77;;
55314;SDS011;41619;42.816;23.226;2023-07-16T03:57:53;12.15;;;7.78;;
55314;SDS011;41619;42.816;23.226;2023-07-16T04:00:19;16.77;;;8.32;;
55314;SDS011;41619;42.816;23.226;2023-07-16T04:02:44;12.00;;;7.95;;
55314;SDS011;41619;42.816;23.226;2023-07-16T04:05:09;9.55;;;7.90;;
55314;SDS011;41619;42.816;23.226;2023-07-16T04:07:35;21.38;;;8.05;;
55314;SDS011;41619;42.816;23.226;2023-07-16T04:10:00;13.23;;;7.65;;
55314;SDS011;41619;42.816;23.226;2023-07-16T04:12:26;10.77;;;7.78;;
55314;SDS011;41619;42.816;23.226;2023-07-16T04:14:56;13.63;;;8.70;;
55314;SDS011;41619;42.816;23.226;2023-07-16T04:17:22;13.05;;;8.23;;
55314;SDS011;41619;42.816;23.226;2023-07-16T04:19:48;14.60;;;7.97;;
55314;SDS011;41619;42.816;23.226;2023-07-16T04:22:13;9.23;;;7.38;;
55314;SDS011;41619;42.816;23.226;2023-07-16T04:24:39;9.98;;;7.40;;
55314;SDS011;41619;42.816;23.226;2023-07-16T04:27:04;13.98;;;7.95;;
55314;SDS011;41619;42.816;23.226;2023-07-16T04:29:30;14.25;;;7.28;;
55314;SDS011;41619;42.816;23.226;2023-07-16T04:31:55;22.02;;;8.30;;
55314;SDS011;41619;42.816;23.226;2023-07-16T04:34:21;23.13;;;7.93;;
55314;SDS011;41619;42.816;23.226;2023-07-16T04:36:46;16.33;;;7.97;;
55314;SDS011;41619;42.816;23.226;2023-07-16T04:39:11;18.63;;;8.00;;
55314;SDS011;41619;42.816;23.226;2023-07-16T04:41:37;11.18;;;7.68;;
55314;SDS011;41619;42.816;23.226;2023-07-16T04:44:02;13.73;;;7.75;;
55314;SDS011;41619;42.816;23.226;2023-07-16T04:46:28;22.95;;;8.27;;
55314;SDS011;41619;42.816;23.226;2023-07-16T04:48:55;16.80;;;8.75;;
55314;SDS011;41619;42.816;23.226;2023-07-16T04:51:20;33.47;;;8.10;;
55314;SDS011;41619;42.816;23.226;2023-07-16T04:53:46;18.95;;;7.43;;
55314;SDS011;41619;42.816;23.226;2023-07-16T04:56:14;16.40;;;7.57;;
55314;SDS011;41619;42.816;23.226;2023-07-16T04:58:41;16.15;;;7.88;;
55314;SDS011;41619;42.816;23.226;2023-07-16T05:01:07;10.75;;;7.20;;
55314;SDS011;41619;42.816;23.226;2023-07-16T05:03:33;13.40;;;6.40;;
55314;SDS011;41619;42.816;23.226;2023-07-16T05:05:59;16.08;;;7.00;;
55314;SDS011;41619;42.816;23.226;2023-07-16T05:08:24;13.13;;;6.78;;
55314;SDS011;41619;42.816;23.226;2023-07-16T05:10:50;14.85;;;6.18;;
55314;SDS011;41619;42.816;23.226;2023-07-16T05:13:15;8.00;;;5.85;;
55314;SDS011;41619;42.816;23.226;2023-07-16T05:15:43;9.05;;;5.40;;
55314;SDS011;41619;42.816;23.226;2023-07-16T05:18:08;12.43;;;6.03;;
55314;SDS011;41619;42.816;23.226;2023-07-16T05:20:34;9.77;;;5.57;;
55314;SDS011;41619;42.816;23.226;2023-07-16T05:22:59;10.45;;;6.32;;
55314;SDS011;41619;42.816;23.226;2023-07-16T05:25:24;8.07;;;5.93;;
55314;SDS011;41619;42.816;23.226;2023-07-16T05:27:50;13.02;;;5.68;;
55314;SDS011;41619;42.816;23.226;2023-07-16T05:30:15;6.50;;;5.18;;
55314;SDS011;41619;42.816;23.226;2023-07-16T05:32:42;8.95;;;5.05;;
55314;SDS011;41619;42.816;23.226;2023-07-16T05:35:07;9.00;;;5.03;;
55314;SDS011;41619;42.816;23.226;2023-07-16T05:37:33;7.47;;;5.03;;
55314;SDS011;41619;42.816;23.226;2023-07-16T05:39:58;7.60;;;5.30;;
55314;SDS011;41619;42.816;23.226;2023-07-16T05:42:23;6.75;;;5.50;;
55314;SDS011;41619;42.816;23.226;2023-07-16T05:44:49;14.43;;;6.45;;
55314;SDS011;41619;42.816;23.226;2023-07-16T05:47:14;12.55;;;6.13;;
55314;SDS011;41619;42.816;23.226;2023-07-16T05:49:40;6.78;;;5.38;;
55314;SDS011;41619;42.816;23.226;2023-07-16T05:52:05;8.98;;;5.35;;
55314;SDS011;41619;42.816;23.226;2023-07-16T05:54:31;11.48;;;5.22;;
55314;SDS011;41619;42.816;23.226;2023-07-16T05:56:56;9.90;;;5.65;;
55314;SDS011;41619;42.816;23.226;2023-07-16T05:59:22;9.38;;;4.93;;
55314;SDS011;41619;42.816;23.226;2023-07-16T06:01:47;8.52;;;4.65;;
55314;SDS011;41619;42.816;23.226;2023-07-16T06:04:13;7.13;;;4.70;;
55314;SDS011;41619;42.816;23.226;2023-07-16T06:06:38;6.95;;;4.38;;
55314;SDS011;41619;42.816;23.226;2023-07-16T06:09:04;10.93;;;5.15;;
55314;SDS011;41619;42.816;23.226;2023-07-16T06:11:29;11.18;;;4.90;;
55314;SDS011;41619;42.816;23.226;2023-07-16T06:13:54;15.57;;;5.18;;
55314;SDS011;41619;42.816;23.226;2023-07-16T06:16:20;6.88;;;4.72;;
55314;SDS011;41619;42.816;23.226;2023-07-16T06:18:46;11.32;;;5.15;;
55314;SDS011;41619;42.816;23.226;2023-07-16T06:21:11;6.53;;;4.80;;
55314;SDS011;41619;42.816;23.226;2023-07-16T06:23:37;7.38;;;4.50;;
55314;SDS011;41619;42.816;23.226;2023-07-16T06:26:03;6.15;;;4.50;;
55314;SDS011;41619;42.816;23.226;2023-07-16T06:28:29;12.07;;;4.28;;
55314;SDS011;41619;42.816;23.226;2023-07-16T06:30:54;12.85;;;4.80;;
55314;SDS011;41619;42.816;23.226;2023-07-16T06:33:20;7.97;;;4.70;;
55314;SDS011;41619;42.816;23.226;2023-07-16T06:35:46;9.38;;;4.80;;
55314;SDS011;41619;42.816;23.226;2023-07-16T06:38:12;15.25;;;4.57;;
55314;SDS011;41619;42.816;23.226;2023-07-16T06:40:38;10.13;;;4.53;;
55314;SDS011;41619;42.816;23.226;2023-07-16T06:43:04;6.43;;;4.38;;
55314;SDS011;41619;42.816;23.226;2023-07-16T06:45:30;10.60;;;5.15;;
55314;SDS011;41619;42.816;23.226;2023-07-16T06:47:55;12.30;;;4.53;;
55314;SDS011;41619;42.816;23.226;2023-07-16T06:50:21;7.63;;;4.60;;
55314;SDS011;41619;42.816;23.226;2023-07-16T06:52:46;7.90;;;4.75;;
55314;SDS011;41619;42.816;23.226;2023-07-16T06:55:11;8.23;;;4.57;;
55314;SDS011;41619;42.816;23.226;2023-07-16T06:57:37;12.50;;;4.57;;
55314;SDS011;41619;42.816;23.226;2023-07-16T07:00:03;19.13;;;4.80;;
55314;SDS011;41619;42.816;23.226;2023-07-16T07:02:29;11.65;;;4.63;;
55314;SDS011;41619;42.816;23.226;2023-07-16T07:04:54;10.52;;;5.05;;
55314;SDS011;41619;42.816;23.226;2023-07-16T07:07:20;6.78;;;4.40;;
55314;SDS011;41619;42.816;23.226;2023-07-16T07:09:48;16.70;;;4.97;;
55314;SDS011;41619;42.816;23.226;2023-07-16T07:14:39;7.47;;;4.78;;
55314;SDS011;41619;42.816;23.226;2023-07-16T07:17:04;15.25;;;4.72;;
55314;SDS011;41619;42.816;23.226;2023-07-16T07:19:30;12.45;;;5.40;;
55314;SDS011;41619;42.816;23.226;2023-07-16T07:21:57;11.68;;;4.95;;
55314;SDS011;41619;42.816;23.226;2023-07-16T07:24:22;7.80;;;5.10;;
55314;SDS011;41619;42.816;23.226;2023-07-16T07:26:48;12.80;;;5.00;;
55314;SDS011;41619;42.816;23.226;2023-07-16T07:29:13;12.43;;;5.05;;
55314;SDS011;41619;42.816;23.226;2023-07-16T07:31:39;12.20;;;5.13;;
55314;SDS011;41619;42.816;23.226;2023-07-16T07:34:06;15.00;;;5.30;;
55314;SDS011;41619;42.816;23.226;2023-07-16T07:36:31;9.50;;;5.20;;
55314;SDS011;41619;42.816;23.226;2023-07-16T07:38:56;13.98;;;5.28;;
55314;SDS011;41619;42.816;23.226;2023-07-16T07:41:22;10.35;;;5.18;;
55314;SDS011;41619;42.816;23.226;2023-07-16T07:43:47;8.20;;;5.85;;
55314;SDS011;41619;42.816;23.226;2023-07-16T07:46:12;6.72;;;5.20;;
55314;SDS011;41619;42.816;23.226;2023-07-16T07:48:38;17.88;;;6.05;;
55314;SDS011;41619;42.816;23.226;2023-07-16T07:51:03;12.55;;;5.68;;
55314;SDS011;41619;42.816;23.226;2023-07-16T07:53:29;20.52;;;5.50;;
55314;SDS011;41619;42.816;23.226;2023-07-16T07:55:54;17.38;;;6.10;;
55314;SDS011;41619;42.816;23.226;2023-07-16T07:58:20;9.52;;;5.78;;
55314;SDS011;41619;42.816;23.226;2023-07-16T08:00:45;12.02;;;6.13;;
55314;SDS011;41619;42.816;23.226;2023-07-16T08:03:10;11.95;;;5.78;;
55314;SDS011;41619;42.816;23.226;2023-07-16T08:05:36;12.27;;;5.10;;
55314;SDS011;41619;42.816;23.226;2023-07-16T08:08:01;10.75;;;6.03;;
55314;SDS011;41619;42.816;23.226;2023-07-16T08:10:27;19.30;;;5.97;;
55314;SDS011;41619;42.816;23.226;2023-07-16T08:12:52;9.48;;;6.20;;
55314;SDS011;41619;42.816;23.226;2023-07-16T08:15:18;8.77;;;6.18;;
55314;SDS011;41619;42.816;23.226;2023-07-16T08:17:44;8.10;;;6.13;;
55314;SDS011;41619;42.816;23.226;2023-07-16T08:20:10;9.25;;;6.20;;
55314;SDS011;41619;42.816;23.226;2023-07-16T08:22:36;9.70;;;6.38;;
55314;SDS011;41619;42.816;23.226;2023-07-16T08:25:02;12.70;;;7.57;;
55314;SDS011;41619;42.816;23.226;2023-07-16T08:27:28;9.77;;;7.15;;
55314;SDS011;41619;42.816;23.226;2023-07-16T08:29:54;13.80;;;7.50;;
55314;SDS011;41619;42.816;23.226;2023-07-16T08:32:20;18.02;;;6.63;;
55314;SDS011;41619;42.816;23.226;2023-07-16T08:34:46;14.93;;;6.43;;
55314;SDS011;41619;42.816;23.226;2023-07-16T08:37:11;10.98;;;6.57;;
55314;SDS011;41619;42.816;23.226;2023-07-16T08:39:37;12.73;;;6.60;;
55314;SDS011;41619;42.816;23.226;2023-07-16T08:42:02;8.35;;;5.68;;
55314;SDS011;41619;42.816;23.226;2023-07-16T08:44:29;8.13;;;6.13;;
55314;SDS011;41619;42.816;23.226;2023-07-16T08:46:54;11.65;;;7.07;;
55314;SDS011;41619;42.816;23.226;2023-07-16T08:49:20;11.75;;;7.05;;
55314;SDS011;41619;42.816;23.226;2023-07-16T08:51:47;11.55;;;6.70;;
55314;SDS011;41619;42.816;23.226;2023-07-16T08:54:13;15.13;;;7.07;;
55314;SDS011;41619;42.816;23.226;2023-07-16T08:56:44;15.52;;;6.45;;
55314;SDS011;41619;42.816;23.226;2023-07-16T08:59:11;11.43;;;7.38;;
55314;SDS011;41619;42.816;23.226;2023-07-16T09:01:37;17.20;;;8.15;;
55314;SDS011;41619;42.816;23.226;2023-07-16T09:04:03;15.00;;;8.20;;
55314;SDS011;41619;42.816;23.226;2023-07-16T09:06:29;15.57;;;8.93;;
55314;SDS011;41619;42.816;23.226;2023-07-16T09:08:54;13.68;;;8.52;;
55314;SDS011;41619;42.816;23.226;2023-07-16T09:11:20;16.83;;;9.00;;
55314;SDS011;41619;42.816;23.226;2023-07-16T09:13:47;14.57;;;7.70;;
55314;SDS011;41619;42.816;23.226;2023-07-16T09:16:13;13.93;;;7.80;;
55314;SDS011;41619;42.816;23.226;2023-07-16T09:18:41;16.88;;;8.25;;
55314;SDS011;41619;42.816;23.226;2023-07-16T09:21:07;17.70;;;8.25;;
55314;SDS011;41619;42.816;23.226;2023-07-16T09:23:32;16.33;;;8.77;;
55314;SDS011;41619;42.816;23.226;2023-07-16T09:25:58;14.80;;;8.00;;
55314;SDS011;41619;42.816;23.226;2023-07-16T09:28:23;15.00;;;8.13;;
55314;SDS011;41619;42.816;23.226;2023-07-16T09:30:49;13.40;;;7.95;;
55314;SDS011;41619;42.816;23.226;2023-07-16T09:33:17;17.55;;;8.50;;
55314;SDS011;41619;42.816;23.226;2023-07-16T09:35:49;17.77;;;8.10;;
55314;SDS011;41619;42.816;23.226;2023-07-16T09:38:15;15.70;;;8.48;;
55314;SDS011;41619;42.816;23.226;2023-07-16T09:40:42;18.33;;;8.60;;
55314;SDS011;41619;42.816;23.226;2023-07-16T09:43:08;9.55;;;7.47;;
55314;SDS011;41619;42.816;23.226;2023-07-16T09:45:34;18.40;;;8.25;;
55314;SDS011;41619;42.816;23.226;2023-07-16T09:48:00;15.15;;;8.68;;
55314;SDS011;41619;42.816;23.226;2023-07-16T09:50:29;19.08;;;8.70;;
55314;SDS011;41619;42.816;23.226;2023-07-16T09:52:58;15.10;;;8.63;;
55314;SDS011;41619;42.816;23.226;2023-07-16T09:55:24;15.75;;;9.23;;
55314;SDS011;41619;42.816;23.226;2023-07-16T09:57:51;15.13;;;9.02;;
55314;SDS011;41619;42.816;23.226;2023-07-16T10:00:19;17.85;;;9.45;;
55314;SDS011;41619;42.816;23.226;2023-07-16T10:02:47;18.52;;;8.45;;
55314;SDS011;41619;42.816;23.226;2023-07-16T10:05:13;18.95;;;9.02;;
55314;SDS011;41619;42.816;23.226;2023-07-16T10:07:49;13.82;;;8.68;;
55314;SDS011;41619;42.816;23.226;2023-07-16T10:10:19;14.70;;;8.63;;
55314;SDS011;41619;42.816;23.226;2023-07-16T10:13:01;12.38;;;9.05;;
55314;SDS011;41619;42.816;23.226;2023-07-16T10:15:27;20.55;;;9.38;;
55314;SDS011;41619;42.816;23.226;2023-07-16T10:17:54;17.77;;;9.13;;
55314;SDS011;41619;42.816;23.226;2023-07-16T10:20:30;13.00;;;8.82;;
55314;SDS011;41619;42.816;23.226;2023-07-16T10:23:10;18.88;;;8.80;;
55314;SDS011;41619;42.816;23.226;2023-07-16T10:25:37;12.13;;;9.07;;
55314;SDS011;41619;42.816;23.226;2023-07-16T10:28:03;16.02;;;7.85;;
55314;SDS011;41619;42.816;23.226;2023-07-16T10:30:28;13.35;;;8.27;;
55314;SDS011;41619;42.816;23.226;2023-07-16T10:32:54;13.75;;;8.05;;
55314;SDS011;41619;42.816;23.226;2023-07-16T10:35:19;18.20;;;9.02;;
55314;SDS011;41619;42.816;23.226;2023-07-16T10:37:44;17.83;;;8.82;;
55314;SDS011;41619;42.816;23.226;2023-07-16T10:40:10;16.15;;;8.23;;
55314;SDS011;41619;42.816;23.226;2023-07-16T10:42:37;17.70;;;9.43;;
55314;SDS011;41619;42.816;23.226;2023-07-16T10:45:04;17.17;;;8.88;;
55314;SDS011;41619;42.816;23.226;2023-07-16T10:47:31;17.63;;;8.82;;
55314;SDS011;41619;42.816;23.226;2023-07-16T10:49:58;16.75;;;9.32;;
55314;SDS011;41619;42.816;23.226;2023-07-16T10:52:24;19.73;;;9.07;;
55314;SDS011;41619;42.816;23.226;2023-07-16T10:54:51;24.25;;;9.38;;
55314;SDS011;41619;42.816;23.226;2023-07-16T10:57:19;15.10;;;9.70;;
55314;SDS011;41619;42.816;23.226;2023-07-16T10:59:45;18.25;;;9.52;;
55314;SDS011;41619;42.816;23.226;2023-07-16T11:02:12;18.88;;;9.30;;
55314;SDS011;41619;42.816;23.226;2023-07-16T11:04:38;14.35;;;8.70;;
55314;SDS011;41619;42.816;23.226;2023-07-16T11:07:10;16.17;;;8.95;;
55314;SDS011;41619;42.816;23.226;2023-07-16T11:09:40;17.13;;;8.77;;
55314;SDS011;41619;42.816;23.226;2023-07-16T11:12:12;18.45;;;8.82;;
55314;SDS011;41619;42.816;23.226;2023-07-16T11:14:41;17.27;;;8.75;;
55314;SDS011;41619;42.816;23.226;2023-07-16T11:17:09;22.05;;;8.38;;
55314;SDS011;41619;42.816;23.226;2023-07-16T11:19:35;17.02;;;9.00;;
55314;SDS011;41619;42.816;23.226;2023-07-16T11:22:01;18.70;;;8.85;;
55314;SDS011;41619;42.816;23.226;2023-07-16T11:24:28;14.25;;;9.77;;
55314;SDS011;41619;42.816;23.226;2023-07-16T11:27:00;14.70;;;9.13;;
55314;SDS011;41619;42.816;23.226;2023-07-16T11:29:26;23.63;;;9.52;;
55314;SDS011;41619;42.816;23.226;2023-07-16T11:31:59;17.15;;;8.57;;
55314;SDS011;41619;42.816;23.226;2023-07-16T11:34:25;18.30;;;8.85;;
55314;SDS011;41619;42.816;23.226;2023-07-16T11:36:50;21.30;;;9.45;;
55314;SDS011;41619;42.816;23.226;2023-07-16T11:39:15;13.00;;;7.53;;
55314;SDS011;41619;42.816;23.226;2023-07-16T11:41:41;20.75;;;9.13;;
55314;SDS011;41619;42.816;23.226;2023-07-16T11:44:07;16.35;;;8.07;;
55314;SDS011;41619;42.816;23.226;2023-07-16T11:46:33;15.35;;;7.95;;
55314;SDS011;41619;42.816;23.226;2023-07-16T11:48:59;20.35;;;8.00;;
55314;SDS011;41619;42.816;23.226;2023-07-16T11:51:25;15.13;;;7.60;;
55314;SDS011;41619;42.816;23.226;2023-07-16T11:53:52;14.63;;;8.50;;
55314;SDS011;41619;42.816;23.226;2023-07-16T11:56:17;18.58;;;8.00;;
55314;SDS011;41619;42.816;23.226;2023-07-16T11:58:43;21.52;;;8.40;;
55314;SDS011;41619;42.816;23.226;2023-07-16T12:01:09;18.20;;;7.72;;
55314;SDS011;41619;42.816;23.226;2023-07-16T12:03:34;15.77;;;7.50;;
55314;SDS011;41619;42.816;23.226;2023-07-16T12:06:00;19.52;;;7.75;;
55314;SDS011;41619;42.816;23.226;2023-07-16T12:08:25;19.73;;;7.50;;
55314;SDS011;41619;42.816;23.226;2023-07-16T12:10:50;12.90;;;7.40;;
55314;SDS011;41619;42.816;23.226;2023-07-16T12:13:16;14.13;;;8.00;;
55314;SDS011;41619;42.816;23.226;2023-07-16T12:15:41;16.73;;;7.72;;
55314;SDS011;41619;42.816;23.226;2023-07-16T12:18:07;14.27;;;6.80;;
55314;SDS011;41619;42.816;23.226;2023-07-16T12:20:33;15.25;;;7.32;;
55314;SDS011;41619;42.816;23.226;2023-07-16T12:22:59;12.50;;;6.63;;
55314;SDS011;41619;42.816;23.226;2023-07-16T12:25:24;14.02;;;7.05;;
55314;SDS011;41619;42.816;23.226;2023-07-16T12:27:50;13.90;;;7.45;;
55314;SDS011;41619;42.816;23.226;2023-07-16T12:30:15;20.80;;;7.15;;
55314;SDS011;41619;42.816;23.226;2023-07-16T12:32:40;20.35;;;7.25;;
55314;SDS011;41619;42.816;23.226;2023-07-16T12:35:06;17.42;;;7.18;;
55314;SDS011;41619;42.816;23.226;2023-07-16T12:37:31;13.15;;;7.95;;
55314;SDS011;41619;42.816;23.226;2023-07-16T12:39:57;12.05;;;7.20;;
55314;SDS011;41619;42.816;23.226;2023-07-16T12:42:22;16.75;;;7.20;;
55314;SDS011;41619;42.816;23.226;2023-07-16T12:44:48;13.27;;;7.18;;
55314;SDS011;41619;42.816;23.226;2023-07-16T12:47:14;15.70;;;7.00;;
55314;SDS011;41619;42.816;23.226;2023-07-16T12:49:40;16.08;;;7.80;;
55314;SDS011;41619;42.816;23.226;2023-07-16T12:52:05;12.85;;;7.55;;
55314;SDS011;41619;42.816;23.226;2023-07-16T12:54:31;16.20;;;7.70;;
55314;SDS011;41619;42.816;23.226;2023-07-16T12:56:56;10.77;;;6.75;;
55314;SDS011;41619;42.816;23.226;2023-07-16T12:59:23;12.90;;;6.90;;
55314;SDS011;41619;42.816;23.226;2023-07-16T13:01:49;14.98;;;6.93;;
55314;SDS011;41619;42.816;23.226;2023-07-16T13:04:15;18.27;;;7.38;;
55314;SDS011;41619;42.816;23.226;2023-07-16T13:06:40;23.33;;;7.85;;
55314;SDS011;41619;42.816;23.226;2023-07-16T13:09:07;15.98;;;7.00;;
55314;SDS011;41619;42.816;23.226;2023-07-16T13:11:32;11.68;;;6.97;;
55314;SDS011;41619;42.816;23.226;2023-07-16T13:13:58;18.80;;;7.43;;
55314;SDS011;41619;42.816;23.226;2023-07-16T13:16:23;16.45;;;7.13;;
55314;SDS011;41619;42.816;23.226;2023-07-16T13:18:48;20.05;;;6.93;;
55314;SDS011;41619;42.816;23.226;2023-07-16T13:21:14;10.00;;;6.75;;
55314;SDS011;41619;42.816;23.226;2023-07-16T13:23:39;13.30;;;6.97;;
55314;SDS011;41619;42.816;23.226;2023-07-16T13:26:05;12.13;;;7.07;;
55314;SDS011;41619;42.816;23.226;2023-07-16T13:28:30;15.45;;;7.35;;
55314;SDS011;41619;42.816;23.226;2023-07-16T13:30:55;17.60;;;8.05;;
55314;SDS011;41619;42.816;23.226;2023-07-16T13:33:21;15.05;;;7.45;;
55314;SDS011;41619;42.816;23.226;2023-07-16T13:35:48;15.77;;;6.95;;
55314;SDS011;41619;42.816;23.226;2023-07-16T13:38:13;15.95;;;7.68;;
55314;SDS011;41619;42.816;23.226;2023-07-16T13:40:38;11.50;;;6.72;;
55314;SDS011;41619;42.816;23.226;2023-07-16T13:43:04;14.68;;;7.65;;
55314;SDS011;41619;42.816;23.226;2023-07-16T13:45:31;14.00;;;7.97;;
55314;SDS011;41619;42.816;23.226;2023-07-16T13:47:58;15.75;;;7.68;;
55314;SDS011;41619;42.816;23.226;2023-07-16T13:50:23;17.90;;;7.68;;
55314;SDS011;41619;42.816;23.226;2023-07-16T13:52:49;12.80;;;7.70;;
55314;SDS011;41619;42.816;23.226;2023-07-16T13:55:14;11.18;;;7.28;;
55314;SDS011;41619;42.816;23.226;2023-07-16T13:57:40;14.40;;;7.40;;
55314;SDS011;41619;42.816;23.226;2023-07-16T14:00:06;15.13;;;7.72;;
55314;SDS011;41619;42.816;23.226;2023-07-16T14:02:34;15.30;;;7.30;;
55314;SDS011;41619;42.816;23.226;2023-07-16T14:05:00;13.90;;;7.85;;
55314;SDS011;41619;42.816;23.226;2023-07-16T14:07:25;17.60;;;7.68;;
55314;SDS011;41619;42.816;23.226;2023-07-16T14:09:51;18.95;;;8.55;;
55314;SDS011;41619;42.816;23.226;2023-07-16T14:12:16;21.50;;;7.57;;
55314;SDS011;41619;42.816;23.226;2023-07-16T14:14:41;15.20;;;7.47;;
55314;SDS011;41619;42.816;23.226;2023-07-16T14:17:07;15.85;;;7.90;;
55314;SDS011;41619;42.816;23.226;2023-07-16T14:19:32;14.85;;;7.43;;
55314;SDS011;41619;42.816;23.226;2023-07-16T14:21:58;17.85;;;7.75;;
55314;SDS011;41619;42.816;23.226;2023-07-16T14:24:23;14.13;;;7.13;;
55314;SDS011;41619;42.816;23.226;2023-07-16T14:26:48;17.45;;;7.68;;